sensor_id;sensor_type;location;lat;lon;timestamp;P1;durP1;ratioP1;P2;durP2;ratioP2
75922;SDS011;64602;47.542;19.090;2023-06-26T07:03:24;8.70;;;5.32;;
75922;SDS011;64602;47.542;19.090;2023-06-26T07:08:26;9.97;;;5.17;;
75922;SDS011;64602;47.542;19.090;2023-06-26T07:13:28;11.07;;;5.60;;
75922;SDS011;64602;47.542;19.090;2023-06-26T07:18:31;7.93;;;5.10;;
75922;SDS011;64602;47.542;19.090;2023-06-26T07:23:33;8.02;;;5.10;;
75922;SDS011;64602;47.542;19.090;2023-06-26T07:28:35;9.23;;;5.40;;
75922;SDS011;64602;47.542;19.090;2023-06-26T07:33:37;8.18;;;5.37;;
75922;SDS011;64602;47.542;19.090;2023-06-26T07:38:39;7.70;;;4.82;;
75922;SDS011;64602;47.542;19.090;2023-06-26T07:43:41;9.53;;;5.13;;
75922;SDS011;64602;47.542;19.090;2023-06-26T07:48:44;9.75;;;5.72;;
75922;SDS011;64602;47.542;19.090;2023-06-26T07:53:46;9.45;;;5.30;;
75922;SDS011;64602;47.542;19.090;2023-06-26T07:58:48;9.77;;;5.70;;
75922;SDS011;64602;47.542;19.090;2023-06-26T08:03:50;8.90;;;5.47;;
75922;SDS011;64602;47.542;19.090;2023-06-26T08:08:52;8.95;;;5.82;;
75922;SDS011;64602;47.542;19.090;2023-06-26T08:13:55;8.77;;;5.47;;
75922;SDS011;64602;47.542;19.090;2023-06-26T08:18:57;7.90;;;5.13;;
75922;SDS011;64602;47.542;19.090;2023-06-26T08:23:59;11.23;;;5.85;;
75922;SDS011;64602;47.542;19.090;2023-06-26T08:29:01;8.90;;;5.15;;
75922;SDS011;64602;47.542;19.090;2023-06-26T08:34:13;8.60;;;5.13;;
75922;SDS011;64602;47.542;19.090;2023-06-26T08:39:15;6.97;;;5.00;;
75922;SDS011;64602;47.542;19.090;2023-06-26T08:44:19;8.18;;;4.87;;
75922;SDS011;64602;47.542;19.090;2023-06-26T08:49:28;7.30;;;4.33;;
75922;SDS011;64602;47.542;19.090;2023-06-26T08:54:38;6.40;;;4.10;;
75922;SDS011;64602;47.542;19.090;2023-06-26T08:59:46;6.78;;;4.53;;
75922;SDS011;64602;47.542;19.090;2023-06-26T09:04:49;7.45;;;4.47;;
75922;SDS011;64602;47.542;19.090;2023-06-26T09:09:52;9.67;;;4.57;;
75922;SDS011;64602;47.542;19.090;2023-06-26T09:14:55;7.80;;;4.68;;
75922;SDS011;64602;47.542;19.090;2023-06-26T09:19:58;8.90;;;4.75;;
75922;SDS011;64602;47.542;19.090;2023-06-26T09:25:00;6.53;;;4.83;;
75922;SDS011;64602;47.542;19.090;2023-06-26T09:30:02;8.70;;;4.93;;
75922;SDS011;64602;47.542;19.090;2023-06-26T09:35:05;6.87;;;4.75;;
75922;SDS011;64602;47.542;19.090;2023-06-26T09:40:07;6.80;;;4.33;;
75922;SDS011;64602;47.542;19.090;2023-06-26T09:45:17;10.73;;;4.30;;
75922;SDS011;64602;47.542;19.090;2023-06-26T09:50:21;9.70;;;4.70;;
75922;SDS011;64602;47.542;19.090;2023-06-26T09:55:25;7.93;;;4.45;;
75922;SDS011;64602;47.542;19.090;2023-06-26T10:00:28;5.60;;;4.17;;
75922;SDS011;64602;47.542;19.090;2023-06-26T10:05:30;8.60;;;4.20;;
75922;SDS011;64602;47.542;19.090;2023-06-26T10:10:36;6.65;;;4.70;;
75922;SDS011;64602;47.542;19.090;2023-06-26T10:15:40;7.90;;;4.37;;
75922;SDS011;64602;47.542;19.090;2023-06-26T10:20:47;6.37;;;4.72;;
75922;SDS011;64602;47.542;19.090;2023-06-26T10:25:51;6.20;;;4.47;;
75922;SDS011;64602;47.542;19.090;2023-06-26T10:30:54;8.33;;;5.83;;
75922;SDS011;64602;47.542;19.090;2023-06-26T10:36:17;8.40;;;4.87;;
75922;SDS011;64602;47.542;19.090;2023-06-26T10:41:21;7.18;;;4.22;;
75922;SDS011;64602;47.542;19.090;2023-06-26T10:46:27;7.30;;;4.80;;
75922;SDS011;64602;47.542;19.090;2023-06-26T10:51:31;9.47;;;4.20;;
75922;SDS011;64602;47.542;19.090;2023-06-26T10:56:44;6.93;;;4.30;;
75922;SDS011;64602;47.542;19.090;2023-06-26T11:01:57;6.25;;;4.20;;
75922;SDS011;64602;47.542;19.090;2023-06-26T11:07:16;7.20;;;4.23;;
75922;SDS011;64602;47.542;19.090;2023-06-26T11:12:42;6.85;;;4.60;;
75922;SDS011;64602;47.542;19.090;2023-06-26T11:17:45;6.43;;;4.30;;
75922;SDS011;64602;47.542;19.090;2023-06-26T11:22:49;7.77;;;4.27;;
75922;SDS011;64602;47.542;19.090;2023-06-26T11:27:55;5.50;;;3.80;;
75922;SDS011;64602;47.542;19.090;2023-06-26T11:33:04;6.95;;;4.00;;
75922;SDS011;64602;47.542;19.090;2023-06-26T11:38:11;7.00;;;3.95;;
75922;SDS011;64602;47.542;19.090;2023-06-26T11:43:13;6.40;;;3.83;;
75922;SDS011;64602;47.542;19.090;2023-06-26T11:48:17;5.85;;;3.72;;
75922;SDS011;64602;47.542;19.090;2023-06-26T11:53:20;6.32;;;4.07;;
75922;SDS011;64602;47.542;19.090;2023-06-26T11:58:22;5.83;;;3.73;;
75922;SDS011;64602;47.542;19.090;2023-06-26T12:03:24;9.27;;;4.10;;
75922;SDS011;64602;47.542;19.090;2023-06-26T12:08:27;5.18;;;3.90;;
75922;SDS011;64602;47.542;19.090;2023-06-26T12:13:29;6.33;;;4.20;;
75922;SDS011;64602;47.542;19.090;2023-06-26T12:18:34;6.17;;;3.73;;
75922;SDS011;64602;47.542;19.090;2023-06-26T12:23:40;5.82;;;3.60;;
75922;SDS011;64602;47.542;19.090;2023-06-26T12:28:44;5.12;;;3.53;;
75922;SDS011;64602;47.542;19.090;2023-06-26T12:33:47;5.90;;;4.10;;
75922;SDS011;64602;47.542;19.090;2023-06-26T12:38:52;6.28;;;4.43;;
75922;SDS011;64602;47.542;19.090;2023-06-26T12:43:55;7.07;;;3.97;;
75922;SDS011;64602;47.542;19.090;2023-06-26T12:48:58;5.70;;;3.83;;
75922;SDS011;64602;47.542;19.090;2023-06-26T12:54:01;6.75;;;4.22;;
75922;SDS011;64602;47.542;19.090;2023-06-26T12:59:03;6.55;;;4.30;;
75922;SDS011;64602;47.542;19.090;2023-06-26T13:04:05;6.23;;;4.40;;
75922;SDS011;64602;47.542;19.090;2023-06-26T13:09:08;6.17;;;3.80;;
75922;SDS011;64602;47.542;19.090;2023-06-26T13:14:10;8.50;;;4.15;;
75922;SDS011;64602;47.542;19.090;2023-06-26T13:19:13;6.37;;;3.92;;
75922;SDS011;64602;47.542;19.090;2023-06-26T13:24:15;6.27;;;4.23;;
75922;SDS011;64602;47.542;19.090;2023-06-26T13:29:17;6.12;;;4.05;;
75922;SDS011;64602;47.542;19.090;2023-06-26T13:34:23;8.13;;;4.50;;
75922;SDS011;64602;47.542;19.090;2023-06-26T13:39:29;9.53;;;4.40;;
75922;SDS011;64602;47.542;19.090;2023-06-26T13:44:31;6.57;;;4.20;;
75922;SDS011;64602;47.542;19.090;2023-06-26T13:49:45;6.80;;;4.28;;
75922;SDS011;64602;47.542;19.090;2023-06-26T13:54:47;6.23;;;4.10;;
75922;SDS011;64602;47.542;19.090;2023-06-26T13:59:49;7.30;;;4.30;;
75922;SDS011;64602;47.542;19.090;2023-06-26T14:04:51;5.72;;;3.97;;
75922;SDS011;64602;47.542;19.090;2023-06-26T14:09:53;7.28;;;4.25;;
75922;SDS011;64602;47.542;19.090;2023-06-26T14:14:55;6.33;;;4.30;;
75922;SDS011;64602;47.542;19.090;2023-06-26T14:19:58;6.10;;;3.92;;
75922;SDS011;64602;47.542;19.090;2023-06-26T14:25:01;6.85;;;4.00;;
75922;SDS011;64602;47.542;19.090;2023-06-26T14:30:04;9.13;;;4.03;;
75922;SDS011;64602;47.542;19.090;2023-06-26T14:35:07;5.68;;;3.78;;
75922;SDS011;64602;47.542;19.090;2023-06-26T14:40:09;5.85;;;3.90;;
75922;SDS011;64602;47.542;19.090;2023-06-26T14:45:12;5.50;;;3.63;;
75922;SDS011;64602;47.542;19.090;2023-06-26T14:50:15;5.93;;;3.93;;
75922;SDS011;64602;47.542;19.090;2023-06-26T14:55:17;5.03;;;3.40;;
75922;SDS011;64602;47.542;19.090;2023-06-26T15:00:19;5.35;;;3.80;;
75922;SDS011;64602;47.542;19.090;2023-06-26T15:05:22;5.43;;;3.80;;
75922;SDS011;64602;47.542;19.090;2023-06-26T15:10:25;5.82;;;3.50;;
75922;SDS011;64602;47.542;19.090;2023-06-26T15:15:29;6.20;;;3.67;;
75922;SDS011;64602;47.542;19.090;2023-06-26T15:20:32;6.73;;;3.60;;
75922;SDS011;64602;47.542;19.090;2023-06-26T15:25:34;5.50;;;3.67;;
75922;SDS011;64602;47.542;19.090;2023-06-26T15:30:38;5.97;;;3.87;;
75922;SDS011;64602;47.542;19.090;2023-06-26T15:35:40;5.53;;;3.77;;
75922;SDS011;64602;47.542;19.090;2023-06-26T15:40:42;5.20;;;3.60;;
75922;SDS011;64602;47.542;19.090;2023-06-26T15:45:45;4.62;;;3.70;;
75922;SDS011;64602;47.542;19.090;2023-06-26T15:50:47;6.80;;;4.05;;
75922;SDS011;64602;47.542;19.090;2023-06-26T15:55:49;5.67;;;3.70;;
75922;SDS011;64602;47.542;19.090;2023-06-26T16:00:51;4.57;;;3.30;;
75922;SDS011;64602;47.542;19.090;2023-06-26T16:05:53;4.12;;;2.72;;
75922;SDS011;64602;47.542;19.090;2023-06-26T16:10:55;4.73;;;3.20;;
75922;SDS011;64602;47.542;19.090;2023-06-26T16:15:58;8.13;;;3.00;;
75922;SDS011;64602;47.542;19.090;2023-06-26T16:21:00;4.72;;;3.53;;
75922;SDS011;64602;47.542;19.090;2023-06-26T16:26:02;5.03;;;3.10;;
75922;SDS011;64602;47.542;19.090;2023-06-26T16:31:05;5.60;;;3.87;;
75922;SDS011;64602;47.542;19.090;2023-06-26T16:36:07;4.40;;;3.00;;
75922;SDS011;64602;47.542;19.090;2023-06-26T16:41:09;8.57;;;4.22;;
75922;SDS011;64602;47.542;19.090;2023-06-26T16:46:11;6.33;;;3.13;;
75922;SDS011;64602;47.542;19.090;2023-06-26T16:51:13;6.50;;;3.17;;
75922;SDS011;64602;47.542;19.090;2023-06-26T16:56:15;7.22;;;3.80;;
75922;SDS011;64602;47.542;19.090;2023-06-26T17:01:21;7.50;;;3.60;;
75922;SDS011;64602;47.542;19.090;2023-06-26T17:06:24;6.12;;;3.70;;
75922;SDS011;64602;47.542;19.090;2023-06-26T17:11:26;12.27;;;5.53;;
75922;SDS011;64602;47.542;19.090;2023-06-26T17:16:28;5.93;;;4.43;;
75922;SDS011;64602;47.542;19.090;2023-06-26T17:21:30;8.50;;;3.93;;
75922;SDS011;64602;47.542;19.090;2023-06-26T17:26:33;6.57;;;4.40;;
75922;SDS011;64602;47.542;19.090;2023-06-26T17:31:36;7.40;;;4.90;;
75922;SDS011;64602;47.542;19.090;2023-06-26T17:36:41;5.60;;;3.50;;
75922;SDS011;64602;47.542;19.090;2023-06-26T17:41:45;5.93;;;3.45;;
75922;SDS011;64602;47.542;19.090;2023-06-26T17:46:48;4.90;;;3.28;;
75922;SDS011;64602;47.542;19.090;2023-06-26T17:51:50;6.80;;;3.50;;
75922;SDS011;64602;47.542;19.090;2023-06-26T17:56:53;5.90;;;3.37;;
75922;SDS011;64602;47.542;19.090;2023-06-26T18:01:55;4.75;;;3.37;;
75922;SDS011;64602;47.542;19.090;2023-06-26T18:07:00;6.10;;;3.37;;
75922;SDS011;64602;47.542;19.090;2023-06-26T18:12:03;5.13;;;3.33;;
75922;SDS011;64602;47.542;19.090;2023-06-26T18:17:05;6.62;;;3.42;;
75922;SDS011;64602;47.542;19.090;2023-06-26T18:22:07;6.62;;;3.97;;
75922;SDS011;64602;47.542;19.090;2023-06-26T18:27:09;5.17;;;3.27;;
75922;SDS011;64602;47.542;19.090;2023-06-26T18:32:12;6.10;;;3.87;;
75922;SDS011;64602;47.542;19.090;2023-06-26T18:37:14;5.37;;;3.70;;
75922;SDS011;64602;47.542;19.090;2023-06-26T18:42:16;4.93;;;3.40;;
75922;SDS011;64602;47.542;19.090;2023-06-26T18:47:18;6.22;;;3.70;;
75922;SDS011;64602;47.542;19.090;2023-06-26T18:52:20;6.60;;;3.80;;
75922;SDS011;64602;47.542;19.090;2023-06-26T18:57:23;5.83;;;3.63;;
75922;SDS011;64602;47.542;19.090;2023-06-26T19:02:25;7.67;;;4.33;;
75922;SDS011;64602;47.542;19.090;2023-06-26T19:07:27;5.80;;;3.53;;
75922;SDS011;64602;47.542;19.090;2023-06-26T19:12:29;7.97;;;4.30;;
75922;SDS011;64602;47.542;19.090;2023-06-26T19:17:31;6.27;;;4.10;;
75922;SDS011;64602;47.542;19.090;2023-06-26T19:22:34;7.57;;;4.28;;
75922;SDS011;64602;47.542;19.090;2023-06-26T19:27:37;7.05;;;4.05;;
75922;SDS011;64602;47.542;19.090;2023-06-26T19:32:40;5.63;;;4.00;;
75922;SDS011;64602;47.542;19.090;2023-06-26T19:37:46;6.30;;;3.97;;
75922;SDS011;64602;47.542;19.090;2023-06-26T19:43:06;6.93;;;4.00;;
75922;SDS011;64602;47.542;19.090;2023-06-26T19:48:08;8.87;;;3.83;;
75922;SDS011;64602;47.542;19.090;2023-06-26T19:53:10;7.90;;;3.90;;
75922;SDS011;64602;47.542;19.090;2023-06-26T19:58:12;9.60;;;5.25;;
75922;SDS011;64602;47.542;19.090;2023-06-26T20:03:15;7.32;;;4.10;;
75922;SDS011;64602;47.542;19.090;2023-06-26T20:08:17;6.70;;;3.43;;
75922;SDS011;64602;47.542;19.090;2023-06-26T20:13:19;7.35;;;3.97;;
